Time;durP1;ratioP1;P1;durP2;ratioP2;P2;SDS_P1;SDS_P2;PMS_P1;PMS_P2;Temp;Humidity;BMP_temperature;BMP_pressure;BME280_temperature;BME280_humidity;BME280_pressure;Samples;Min_cycle;Max_cycle;Signal;HPM_P1;HPM_P2
2021/05/20 00:01:51;;;;;;;9.15;8.35;;;10.50;99.90;;;;;;5037389;28;20199;-79
2021/05/20 00:04:19;;;;;;;10.85;9.68;;;10.50;99.90;;;;;;4990142;28;20243;-78
2021/05/20 00:06:46;;;;;;;9.05;8.15;;;10.50;99.90;;;;;;5021354;28;20207;-78
2021/05/20 00:09:13;;;;;;;9.95;9.15;;;10.50;99.90;;;;;;5026408;28;20208;-79
2021/05/20 00:11:39;;;;;;;11.25;10.25;;;10.60;99.90;;;;;;5018728;28;20745;-79
2021/05/20 00:14:06;;;;;;;9.65;8.73;;;10.30;99.90;;;;;;5028035;28;20226;-78
2021/05/20 00:16:33;;;;;;;9.85;9.00;;;10.30;99.90;;;;;;5020023;28;20193;-78
2021/05/20 00:18:59;;;;;;;10.38;9.48;;;10.40;99.90;;;;;;5028459;28;20202;-78
2021/05/20 00:21:28;;;;;;;9.52;8.73;;;10.40;99.90;;;;;;5034163;28;20784;-77
2021/05/20 00:23:54;;;;;;;10.68;9.85;;;10.40;99.90;;;;;;5014298;28;20274;-78
2021/05/20 00:26:21;;;;;;;10.20;9.30;;;10.30;99.90;;;;;;5017582;28;20200;-78
2021/05/20 00:28:48;;;;;;;10.95;9.85;;;10.10;99.90;;;;;;5032174;28;20199;-78
2021/05/20 00:31:14;;;;;;;11.27;9.60;;;10.10;99.90;;;;;;5002775;28;20286;-78
2021/05/20 00:33:41;;;;;;;10.57;9.68;;;10.10;99.90;;;;;;4993766;28;20237;-78
2021/05/20 00:36:08;;;;;;;10.32;9.25;;;10.10;99.90;;;;;;5018402;28;20216;-79
2021/05/20 00:38:36;;;;;;;11.43;9.52;;;10.00;99.90;;;;;;5030995;28;20188;-78
2021/05/20 00:41:03;;;;;;;11.05;9.93;;;9.90;99.90;;;;;;5025781;28;20212;-78
2021/05/20 00:43:30;;;;;;;10.73;9.73;;;9.90;99.90;;;;;;5025537;28;20204;-79
2021/05/20 00:45:57;;;;;;;11.02;9.80;;;9.80;99.90;;;;;;5029409;28;20213;-78
2021/05/20 00:48:24;;;;;;;10.23;9.32;;;9.80;99.90;;;;;;5022124;28;20203;-78
2021/05/20 00:50:50;;;;;;;10.77;8.90;;;9.80;99.90;;;;;;4997438;28;20200;-78
2021/05/20 00:53:17;;;;;;;10.90;9.82;;;9.70;99.90;;;;;;5034464;28;20201;-78
2021/05/20 00:55:45;;;;;;;10.25;9.30;;;9.70;99.90;;;;;;5027934;28;20285;-78
2021/05/20 00:58:14;;;;;;;10.50;9.50;;;9.80;99.90;;;;;;5003718;28;20679;-79
2021/05/20 01:00:42;;;;;;;10.43;9.43;;;10.00;99.90;;;;;;5018938;28;20204;-77
2021/05/20 01:03:09;;;;;;;11.07;9.57;;;10.00;99.90;;;;;;5018132;28;20253;-78
2021/05/20 01:05:35;;;;;;;11.15;10.05;;;10.00;99.90;;;;;;5000215;28;20247;-78
2021/05/20 01:08:02;;;;;;;9.27;8.52;;;10.10;99.90;;;;;;5000517;28;20607;-78
2021/05/20 01:10:29;;;;;;;10.30;9.23;;;10.10;99.90;;;;;;5027544;28;20188;-78
2021/05/20 01:12:56;;;;;;;10.27;9.38;;;10.20;99.90;;;;;;5005585;28;20210;-76
2021/05/20 01:15:25;;;;;;;11.40;10.30;;;10.10;99.90;;;;;;5023840;28;20270;-79
2021/05/20 01:17:53;;;;;;;10.88;9.85;;;10.10;99.90;;;;;;5019691;28;20193;-79
2021/05/20 01:20:25;;;;;;;10.10;9.30;;;9.90;99.90;;;;;;5009501;28;20207;-78
2021/05/20 01:22:53;;;;;;;10.10;9.25;;;9.60;99.90;;;;;;5011731;28;20193;-78
2021/05/20 01:25:19;;;;;;;11.85;10.75;;;9.50;99.90;;;;;;5016380;28;20239;-79
2021/05/20 01:27:46;;;;;;;11.20;10.18;;;9.40;99.90;;;;;;5013316;28;20199;-78
2021/05/20 01:30:14;;;;;;;12.40;11.10;;;9.30;99.90;;;;;;5029556;28;20203;-77
2021/05/20 01:32:41;;;;;;;13.68;11.65;;;9.30;99.90;;;;;;4997820;28;20282;-78
2021/05/20 01:35:08;;;;;;;11.30;10.20;;;9.30;99.90;;;;;;5025023;28;20295;-78
2021/05/20 01:37:36;;;;;;;11.00;10.10;;;9.30;99.90;;;;;;5032828;28;20200;-78
2021/05/20 01:40:06;;;;;;;12.02;10.90;;;9.20;99.90;;;;;;5036524;28;20195;-78
2021/05/20 01:42:33;;;;;;;15.57;11.23;;;9.20;99.90;;;;;;5004290;28;20200;-79
2021/05/20 01:44:59;;;;;;;13.02;11.02;;;9.10;99.90;;;;;;5017098;28;20479;-78
2021/05/20 01:47:26;;;;;;;13.20;11.73;;;9.10;99.90;;;;;;5038492;28;20661;-78
2021/05/20 01:49:55;;;;;;;13.52;12.13;;;9.00;99.90;;;;;;5002463;28;20217;-78
2021/05/20 01:52:21;;;;;;;12.30;11.20;;;9.00;99.90;;;;;;5032067;28;20263;-79
2021/05/20 01:54:49;;;;;;;12.25;10.95;;;8.90;99.90;;;;;;5000844;28;20232;-78
2021/05/20 01:57:16;;;;;;;14.45;13.13;;;9.00;99.90;;;;;;5016674;28;20192;-78
2021/05/20 01:59:44;;;;;;;13.02;11.65;;;9.00;99.90;;;;;;4988508;28;20250;-78
2021/05/20 02:02:10;;;;;;;12.93;11.73;;;9.10;99.90;;;;;;5012532;28;20208;-78
2021/05/20 02:04:37;;;;;;;13.27;11.98;;;9.10;99.90;;;;;;5021010;28;20219;-77
2021/05/20 02:07:04;;;;;;;13.95;12.70;;;9.10;99.90;;;;;;4987385;28;20613;-79
2021/05/20 02:09:30;;;;;;;14.70;13.20;;;9.00;99.90;;;;;;5022485;28;20231;-77
2021/05/20 02:11:58;;;;;;;13.68;12.13;;;8.90;99.90;;;;;;5017331;28;20291;-79
2021/05/20 02:14:24;;;;;;;12.80;11.60;;;9.00;99.90;;;;;;5021479;28;20219;-78
2021/05/20 02:16:51;;;;;;;13.88;12.57;;;9.00;99.90;;;;;;5033672;28;20200;-79
2021/05/20 02:19:17;;;;;;;13.20;11.93;;;8.90;99.90;;;;;;5038499;28;20215;-77
2021/05/20 02:21:44;;;;;;;12.82;11.57;;;8.90;99.90;;;;;;4995581;28;20205;-77
2021/05/20 02:24:11;;;;;;;15.25;13.75;;;8.90;99.90;;;;;;5037257;28;20612;-78
2021/05/20 02:26:38;;;;;;;14.20;12.70;;;9.10;99.90;;;;;;5006010;28;20196;-78
2021/05/20 02:29:06;;;;;;;12.68;11.50;;;9.10;99.90;;;;;;5035481;28;20214;-78
2021/05/20 02:31:32;;;;;;;16.27;13.35;;;9.10;99.90;;;;;;5005721;28;20571;-78
2021/05/20 02:34:00;;;;;;;13.52;12.07;;;9.10;99.90;;;;;;5033789;28;20212;-78
2021/05/20 02:36:26;;;;;;;14.07;12.55;;;9.10;99.90;;;;;;5030487;28;20197;-79
2021/05/20 02:38:52;;;;;;;13.52;11.93;;;9.00;99.90;;;;;;5023771;28;20267;-78
2021/05/20 02:41:19;;;;;;;12.95;11.70;;;8.90;99.90;;;;;;5021371;28;20202;-78
2021/05/20 02:43:46;;;;;;;14.68;12.90;;;8.80;99.90;;;;;;5043551;28;20282;-78
2021/05/20 02:46:13;;;;;;;13.23;11.82;;;8.90;99.90;;;;;;5006321;28;20793;-79
2021/05/20 02:48:40;;;;;;;14.02;12.70;;;8.70;99.90;;;;;;5031721;28;20211;-78
2021/05/20 02:51:07;;;;;;;14.70;13.15;;;8.50;99.90;;;;;;5026211;28;20214;-78
2021/05/20 02:53:33;;;;;;;12.75;11.52;;;8.50;99.90;;;;;;5037928;28;20206;-78
2021/05/20 02:56:00;;;;;;;15.27;13.77;;;8.40;99.90;;;;;;5035561;28;20214;-77
2021/05/20 02:58:27;;;;;;;14.02;12.63;;;8.30;99.90;;;;;;4996889;28;20574;-76
2021/05/20 03:00:54;;;;;;;14.48;13.07;;;8.30;99.90;;;;;;5001838;28;20199;-78
2021/05/20 03:03:21;;;;;;;16.77;14.55;;;8.20;99.90;;;;;;5014155;28;20280;-78
2021/05/20 03:05:48;;;;;;;16.73;14.55;;;8.20;99.90;;;;;;5020979;28;20640;-78
2021/05/20 03:08:16;;;;;;;15.07;13.45;;;8.10;99.90;;;;;;5032561;28;20199;-78
2021/05/20 03:10:43;;;;;;;14.90;13.27;;;8.20;99.90;;;;;;5015122;28;20206;-77
2021/05/20 03:13:09;;;;;;;14.27;12.77;;;8.00;99.90;;;;;;5032680;28;20192;-78
2021/05/20 03:15:36;;;;;;;14.27;12.80;;;7.90;99.90;;;;;;5033398;28;20240;-78
2021/05/20 03:18:03;;;;;;;13.95;12.60;;;7.80;99.90;;;;;;5018807;28;20204;-78
2021/05/20 03:20:31;;;;;;;15.85;14.00;;;7.80;99.90;;;;;;5003338;28;20243;-78
2021/05/20 03:22:57;;;;;;;16.70;14.90;;;7.70;99.90;;;;;;5016924;28;20226;-77
2021/05/20 03:25:24;;;;;;;17.13;15.02;;;7.80;99.90;;;;;;5020838;28;20220;-78
2021/05/20 03:27:51;;;;;;;17.52;15.68;;;7.80;99.90;;;;;;5029413;28;20279;-78
2021/05/20 03:30:18;;;;;;;19.25;15.45;;;7.90;99.90;;;;;;5028586;28;20192;-78
2021/05/20 03:32:45;;;;;;;14.75;13.23;;;8.00;99.90;;;;;;5034355;28;20200;-78
2021/05/20 03:35:12;;;;;;;15.98;14.48;;;8.00;99.90;;;;;;5022045;28;20617;-77
2021/05/20 03:37:40;;;;;;;16.27;14.65;;;8.00;99.90;;;;;;5019608;28;20290;-78
2021/05/20 03:40:07;;;;;;;18.45;15.73;;;8.10;99.90;;;;;;5028452;28;20200;-78
2021/05/20 03:42:35;;;;;;;16.63;14.40;;;8.20;99.90;;;;;;5024331;28;20207;-77
2021/05/20 03:45:03;;;;;;;16.33;14.50;;;8.10;99.90;;;;;;5014197;28;20216;-78
2021/05/20 03:47:29;;;;;;;14.80;13.27;;;8.20;99.90;;;;;;5004026;28;20197;-78
2021/05/20 03:49:56;;;;;;;17.48;14.88;;;8.20;99.90;;;;;;5028843;28;20201;-78
2021/05/20 03:52:23;;;;;;;16.92;15.07;;;8.30;99.90;;;;;;5027087;28;20200;-79
2021/05/20 03:54:50;;;;;;;13.73;12.32;;;8.20;99.90;;;;;;5035530;28;20706;-79
2021/05/20 03:57:17;;;;;;;14.70;13.30;;;8.10;99.90;;;;;;5036431;28;20196;-78
2021/05/20 03:59:43;;;;;;;15.10;13.60;;;8.10;99.90;;;;;;5034530;28;20273;-78
2021/05/20 04:02:11;;;;;;;15.02;13.52;;;8.10;99.90;;;;;;5021855;28;20214;-78
2021/05/20 04:04:38;;;;;;;14.95;13.50;;;8.10;99.90;;;;;;5029196;28;20568;-78
2021/05/20 04:07:05;;;;;;;16.70;15.00;;;8.10;99.90;;;;;;5037765;28;20200;-78
2021/05/20 04:09:31;;;;;;;15.52;13.95;;;8.00;99.90;;;;;;5021537;28;20215;-77
2021/05/20 04:12:01;;;;;;;16.35;14.65;;;7.90;99.90;;;;;;5013937;28;20654;-78
2021/05/20 04:14:27;;;;;;;15.95;14.38;;;7.90;99.90;;;;;;5038514;28;20349;-78
2021/05/20 04:16:54;;;;;;;16.63;14.63;;;7.90;99.90;;;;;;5007137;28;20228;-78
2021/05/20 04:19:20;;;;;;;17.00;15.13;;;7.90;99.90;;;;;;5007665;28;20188;-78
2021/05/20 04:21:48;;;;;;;16.33;14.80;;;8.00;99.90;;;;;;5023275;28;20209;-78
2021/05/20 04:24:15;;;;;;;17.52;15.40;;;8.10;99.90;;;;;;5043969;28;20267;-76
2021/05/20 04:26:41;;;;;;;15.85;14.25;;;8.10;99.90;;;;;;5023088;28;20187;-77
2021/05/20 04:29:09;;;;;;;17.27;15.57;;;8.10;99.90;;;;;;5023195;28;20231;-78
2021/05/20 04:31:36;;;;;;;16.48;14.88;;;8.20;99.90;;;;;;5040663;28;20214;-77
2021/05/20 04:34:02;;;;;;;16.63;14.70;;;8.30;99.90;;;;;;5029505;28;20220;-78
2021/05/20 04:36:29;;;;;;;17.50;15.60;;;8.30;99.90;;;;;;5031920;28;20281;-78
2021/05/20 04:38:56;;;;;;;17.55;15.68;;;8.30;99.90;;;;;;5042861;28;20208;-78
2021/05/20 04:41:22;;;;;;;16.55;14.80;;;8.40;99.90;;;;;;5021613;28;20196;-78
2021/05/20 04:43:49;;;;;;;17.45;15.63;;;8.40;99.90;;;;;;5020000;28;20198;-78
2021/05/20 04:46:17;;;;;;;16.17;14.63;;;8.50;99.90;;;;;;5019045;28;20217;-78
2021/05/20 04:48:43;;;;;;;16.90;15.30;;;8.50;99.90;;;;;;5019568;28;20242;-78
2021/05/20 04:51:10;;;;;;;15.80;14.30;;;8.60;99.90;;;;;;5022228;28;20269;-78
2021/05/20 04:53:36;;;;;;;15.48;13.80;;;8.70;99.90;;;;;;5035174;28;20226;-79
2021/05/20 04:56:04;;;;;;;15.30;13.57;;;8.70;99.90;;;;;;5002356;28;20227;-78
2021/05/20 04:58:30;;;;;;;14.43;12.93;;;8.70;99.90;;;;;;5016145;28;20293;-78
2021/05/20 05:00:57;;;;;;;14.82;13.40;;;8.50;99.90;;;;;;5009474;28;20216;-79
2021/05/20 05:03:25;;;;;;;15.23;13.73;;;8.60;99.90;;;;;;5035985;28;20208;-78
2021/05/20 05:05:53;;;;;;;15.75;14.07;;;8.70;99.90;;;;;;5007045;28;20235;-78
2021/05/20 05:08:20;;;;;;;14.10;12.80;;;8.90;99.90;;;;;;5018675;28;20210;-77
2021/05/20 05:10:47;;;;;;;15.50;14.07;;;9.00;99.90;;;;;;5022978;28;20200;-78
2021/05/20 05:13:13;;;;;;;17.55;12.25;;;9.00;99.90;;;;;;5019803;28;20689;-78
2021/05/20 05:15:40;;;;;;;13.75;12.50;;;9.10;99.90;;;;;;5017893;28;20231;-77
2021/05/20 05:18:07;;;;;;;13.65;12.35;;;9.10;99.90;;;;;;5015130;28;20222;-78
2021/05/20 05:20:35;;;;;;;14.57;13.18;;;9.20;99.90;;;;;;5007442;28;20211;-77
2021/05/20 05:23:04;;;;;;;14.00;12.60;;;9.20;99.90;;;;;;5002179;28;20197;-78
2021/05/20 05:25:31;;;;;;;13.48;12.10;;;9.30;99.90;;;;;;5001788;28;20270;-78
2021/05/20 05:27:57;;;;;;;14.18;12.25;;;9.40;99.90;;;;;;5022404;28;20242;-78
2021/05/20 05:30:25;;;;;;;12.80;11.70;;;9.50;99.90;;;;;;5035445;28;20200;-78
2021/05/20 05:32:52;;;;;;;14.30;12.80;;;9.50;99.90;;;;;;5018601;28;20286;-78
2021/05/20 05:35:18;;;;;;;15.07;11.88;;;9.70;99.90;;;;;;5018474;28;20633;-79
2021/05/20 05:37:46;;;;;;;13.48;12.18;;;9.90;99.90;;;;;;5017977;28;20227;-79
2021/05/20 05:40:13;;;;;;;12.27;11.05;;;9.90;99.90;;;;;;5022567;28;20203;-78
2021/05/20 05:42:41;;;;;;;13.93;12.55;;;9.80;99.90;;;;;;5036762;28;20188;-78
2021/05/20 05:45:08;;;;;;;14.55;11.25;;;9.90;99.90;;;;;;5021940;28;20243;-77
2021/05/20 05:47:35;;;;;;;14.02;12.80;;;10.00;99.90;;;;;;5023236;28;20200;-78
2021/05/20 05:50:06;;;;;;;13.55;12.23;;;10.00;99.90;;;;;;5030186;28;20580;-79
2021/05/20 05:52:33;;;;;;;14.50;12.65;;;10.20;99.90;;;;;;5024686;28;20191;-78
2021/05/20 05:55:00;;;;;;;15.05;13.55;;;10.30;99.90;;;;;;5025830;28;20216;-78
2021/05/20 05:57:28;;;;;;;14.38;13.02;;;10.30;99.90;;;;;;5023555;28;20195;-78
2021/05/20 05:59:55;;;;;;;15.13;13.68;;;10.50;99.90;;;;;;5011514;28;20577;-78
2021/05/20 06:02:23;;;;;;;16.70;15.00;;;10.50;99.90;;;;;;5005264;28;20282;-79
2021/05/20 06:04:50;;;;;;;14.70;13.30;;;10.50;99.90;;;;;;5019695;28;20229;-79
2021/05/20 06:07:17;;;;;;;21.88;14.90;;;10.80;99.90;;;;;;5020480;28;20239;-77
2021/05/20 06:09:44;;;;;;;17.52;15.88;;;10.80;99.90;;;;;;5036691;28;20201;-78
2021/05/20 06:12:12;;;;;;;20.25;18.38;;;11.00;99.90;;;;;;5017797;28;20736;-78
2021/05/20 06:14:40;;;;;;;19.92;17.83;;;11.30;99.90;;;;;;5027750;28;20220;-78
2021/05/20 06:17:07;;;;;;;19.88;18.00;;;11.60;99.90;;;;;;5036477;28;20233;-79
2021/05/20 06:19:34;;;;;;;20.33;18.42;;;11.40;99.90;;;;;;4992688;28;20196;-77
2021/05/20 06:22:01;;;;;;;18.75;16.95;;;11.10;99.90;;;;;;5010054;28;20647;-79
2021/05/20 06:24:27;;;;;;;19.48;17.63;;;11.20;99.90;;;;;;5010283;28;20926;-79
2021/05/20 06:26:54;;;;;;;19.25;17.45;;;11.10;99.90;;;;;;5000756;28;20338;-78
2021/05/20 06:29:21;;;;;;;22.52;20.02;;;11.20;99.90;;;;;;5018642;28;20208;-78
2021/05/20 06:31:48;;;;;;;22.20;20.10;;;11.60;99.90;;;;;;5026708;28;20197;-78
2021/05/20 06:34:15;;;;;;;21.30;19.35;;;11.70;99.90;;;;;;5007350;28;20223;-78
2021/05/20 06:36:41;;;;;;;23.25;20.73;;;11.70;99.90;;;;;;5039447;28;20195;-79
2021/05/20 06:39:08;;;;;;;22.45;20.48;;;11.80;99.90;;;;;;5005165;28;20209;-79
2021/05/20 06:41:35;;;;;;;22.55;20.25;;;12.10;99.90;;;;;;5004094;28;20571;-78
2021/05/20 06:44:03;;;;;;;20.42;18.42;;;12.00;99.90;;;;;;5018870;28;20291;-79
2021/05/20 06:46:33;;;;;;;21.95;19.85;;;12.20;99.90;;;;;;5020380;28;20259;-78
2021/05/20 06:49:00;;;;;;;19.50;17.70;;;12.50;99.90;;;;;;5013418;28;20291;-78
2021/05/20 06:51:26;;;;;;;22.52;20.13;;;12.50;99.90;;;;;;5035387;28;20227;-79
2021/05/20 06:53:53;;;;;;;22.38;20.02;;;12.30;99.90;;;;;;5037931;28;20203;-78
2021/05/20 06:56:22;;;;;;;22.60;20.33;;;12.30;99.90;;;;;;5007970;28;20223;-79
2021/05/20 07:01:36;;;;;;;22.40;20.50;;;12.40;99.90;;;;;;5004866;28;20188;-79
2021/05/20 07:04:03;;;;;;;20.77;18.70;;;12.50;99.90;;;;;;5022282;28;20219;-78
2021/05/20 07:06:31;;;;;;;18.85;17.10;;;12.60;99.90;;;;;;5033305;28;20694;-79
2021/05/20 07:08:57;;;;;;;19.92;18.08;;;12.80;99.90;;;;;;5015387;28;20192;-79
2021/05/20 07:11:24;;;;;;;18.45;16.55;;;12.70;99.90;;;;;;5035461;28;20203;-79
2021/05/20 07:13:51;;;;;;;16.92;15.20;;;12.70;99.90;;;;;;5035487;28;20603;-79
2021/05/20 07:16:17;;;;;;;18.40;16.70;;;12.90;99.90;;;;;;5032428;28;20697;-80
2021/05/20 07:18:45;;;;;;;16.73;15.10;;;12.90;99.90;;;;;;5013863;28;20659;-79
2021/05/20 07:21:12;;;;;;;17.60;15.98;;;12.80;99.90;;;;;;5018176;28;20212;-81
2021/05/20 07:23:38;;;;;;;17.90;16.20;;;12.90;99.90;;;;;;5021017;28;20211;-78
2021/05/20 07:26:05;;;;;;;15.93;14.32;;;13.10;99.90;;;;;;5019024;28;20244;-79
2021/05/20 07:28:32;;;;;;;16.02;14.38;;;13.00;99.90;;;;;;5026019;28;20192;-79
2021/05/20 07:30:58;;;;;;;16.95;15.27;;;12.90;99.90;;;;;;5037049;28;20197;-79
2021/05/20 07:33:26;;;;;;;16.30;14.65;;;13.40;99.90;;;;;;5020005;28;20204;-78
2021/05/20 07:35:54;;;;;;;16.13;14.63;;;13.50;99.90;;;;;;5002539;28;20221;-79
2021/05/20 07:38:21;;;;;;;14.57;12.95;;;13.40;99.90;;;;;;5022140;28;20220;-78
2021/05/20 07:40:47;;;;;;;14.70;13.25;;;13.40;99.90;;;;;;5004658;28;20546;-78
2021/05/20 07:43:14;;;;;;;17.70;16.00;;;13.30;99.90;;;;;;5032655;28;20457;-78
2021/05/20 07:45:40;;;;;;;18.95;15.18;;;13.70;99.90;;;;;;5009530;28;20268;-79
2021/05/20 07:48:08;;;;;;;15.32;13.93;;;13.70;99.90;;;;;;5021348;28;20204;-79
2021/05/20 07:50:34;;;;;;;13.73;12.32;;;13.60;99.90;;;;;;5022698;28;20802;-78
2021/05/20 07:53:02;;;;;;;12.20;11.10;;;13.70;99.90;;;;;;5003224;28;20197;-79
2021/05/20 07:55:28;;;;;;;14.73;13.32;;;13.70;99.90;;;;;;5023840;28;20224;-78
2021/05/20 07:57:58;;;;;;;15.55;14.07;;;14.10;99.90;;;;;;5022606;28;20204;-79
2021/05/20 08:00:25;;;;;;;8.68;7.95;;;14.40;99.90;;;;;;5012823;28;20196;-78
2021/05/20 08:02:56;;;;;;;11.55;10.45;;;14.50;99.90;;;;;;5028503;28;20284;-79
2021/05/20 08:05:28;;;;;;;12.88;11.38;;;14.40;99.90;;;;;;5038206;28;20231;-78
2021/05/20 08:08:05;;;;;;;8.55;7.85;;;14.40;99.90;;;;;;5032372;28;20274;-78
2021/05/20 08:10:48;;;;;;;9.93;8.95;;;14.50;99.90;;;;;;5031621;28;20249;-78
2021/05/20 08:13:16;;;;;;;11.55;7.90;;;14.80;99.90;;;;;;5015319;28;20207;-78
2021/05/20 08:15:43;;;;;;;7.63;6.65;;;14.90;99.90;;;;;;5030023;28;20314;-80
2021/05/20 08:18:10;;;;;;;9.88;7.20;;;14.90;99.90;;;;;;5018386;28;20201;-79
2021/05/20 08:20:36;;;;;;;8.13;6.30;;;14.30;99.90;;;;;;5024947;28;20203;-78
2021/05/20 08:23:04;;;;;;;8.05;6.65;;;14.20;99.90;;;;;;5016657;28;20203;-79
2021/05/20 08:25:31;;;;;;;7.07;6.35;;;14.20;99.90;;;;;;5005750;28;20219;-78
2021/05/20 08:27:58;;;;;;;7.18;6.57;;;14.60;99.90;;;;;;5033936;28;20211;-78
2021/05/20 08:30:26;;;;;;;8.32;6.53;;;14.70;99.90;;;;;;5027288;28;20235;-78
2021/05/20 08:32:52;;;;;;;6.32;5.72;;;14.90;99.90;;;;;;5028759;28;20280;-78
2021/05/20 08:35:19;;;;;;;6.05;5.55;;;14.60;99.90;;;;;;5036153;28;20216;-78
2021/05/20 08:37:46;;;;;;;5.95;5.45;;;14.90;99.90;;;;;;5017850;28;20223;-79
2021/05/20 08:40:14;;;;;;;5.78;5.13;;;15.40;99.90;;;;;;5017276;28;20192;-79
2021/05/20 08:42:42;;;;;;;5.82;5.25;;;15.00;99.90;;;;;;5028397;28;20212;-79
2021/05/20 08:45:12;;;;;;;6.38;5.78;;;15.10;99.90;;;;;;5026681;28;20217;-78
2021/05/20 08:47:39;;;;;;;5.65;5.13;;;15.00;99.90;;;;;;5031517;28;20598;-79
2021/05/20 08:50:07;;;;;;;6.85;5.55;;;14.80;99.90;;;;;;5030945;28;20222;-79
2021/05/20 08:52:36;;;;;;;8.30;4.90;;;14.80;99.90;;;;;;5025134;28;20295;-79
2021/05/20 08:55:04;;;;;;;6.53;4.68;;;15.00;99.90;;;;;;5039161;28;20228;-79
2021/05/20 08:57:31;;;;;;;5.30;4.80;;;15.50;99.90;;;;;;5031529;28;20192;-80
2021/05/20 08:59:58;;;;;;;8.48;5.28;;;15.60;99.90;;;;;;5034841;28;20256;-80
2021/05/20 09:02:29;;;;;;;5.70;5.05;;;15.60;99.90;;;;;;5028156;28;20208;-79
2021/05/20 09:05:09;;;;;;;5.95;4.82;;;15.70;99.90;;;;;;5026962;28;20615;-80
2021/05/20 09:07:38;;;;;;;4.95;4.45;;;15.50;99.90;;;;;;5028177;28;20195;-79
2021/05/20 09:10:20;;;;;;;5.13;4.65;;;15.30;99.90;;;;;;5013431;28;20192;-80
2021/05/20 09:12:50;;;;;;;6.13;5.60;;;15.40;99.90;;;;;;5031297;28;20335;-80
2021/05/20 09:15:28;;;;;;;6.53;5.57;;;15.50;99.90;;;;;;5017022;28;20251;-79
2021/05/20 09:18:07;;;;;;;6.05;5.45;;;15.60;99.90;;;;;;5033214;28;20289;-81
2021/05/20 09:20:39;;;;;;;5.70;5.20;;;15.50;99.90;;;;;;5031945;28;20261;-80
2021/05/20 09:23:08;;;;;;;8.25;5.65;;;15.50;99.90;;;;;;5029357;28;20211;-80
2021/05/20 09:25:36;;;;;;;8.13;5.88;;;15.30;99.90;;;;;;5035606;28;20302;-81
2021/05/20 09:28:05;;;;;;;6.45;5.65;;;15.60;99.90;;;;;;5037862;28;20218;-79
2021/05/20 09:30:32;;;;;;;7.13;6.38;;;15.50;99.90;;;;;;5028942;28;20208;-79
2021/05/20 09:33:05;;;;;;;7.57;5.65;;;15.50;99.90;;;;;;5027362;28;20558;-79
2021/05/20 09:35:33;;;;;;;7.85;5.88;;;15.60;99.90;;;;;;5013565;28;20238;-80
2021/05/20 09:38:03;;;;;;;5.40;4.75;;;15.90;99.90;;;;;;5023826;28;20695;-80
2021/05/20 09:40:33;;;;;;;3.75;3.50;;;16.20;99.90;;;;;;5033634;28;20736;-79
2021/05/20 09:43:03;;;;;;;3.38;3.05;;;16.50;99.90;;;;;;5027966;28;20199;-77
2021/05/20 09:45:35;;;;;;;4.63;3.45;;;16.10;99.90;;;;;;5026119;28;20208;-78
2021/05/20 09:48:08;;;;;;;4.60;3.67;;;16.00;99.90;;;;;;5025314;28;20643;-79
2021/05/20 09:50:40;;;;;;;6.10;4.93;;;16.10;99.90;;;;;;5036077;28;20235;-78
2021/05/20 09:53:12;;;;;;;5.95;4.38;;;15.80;99.90;;;;;;5035212;28;20222;-79
2021/05/20 09:55:48;;;;;;;4.80;4.32;;;15.90;99.90;;;;;;5032266;28;20247;-80
2021/05/20 09:58:15;;;;;;;4.22;3.88;;;16.20;99.90;;;;;;5041676;28;20216;-79
2021/05/20 10:00:42;;;;;;;5.85;3.10;;;16.60;99.90;;;;;;5025159;28;20209;-78
2021/05/20 10:03:12;;;;;;;4.18;3.78;;;16.80;99.90;;;;;;5014879;28;20250;-80
2021/05/20 10:05:40;;;;;;;4.05;3.25;;;16.70;99.90;;;;;;5036697;28;20212;-78
2021/05/20 10:08:11;;;;;;;4.18;3.78;;;16.00;99.90;;;;;;4990535;28;20197;-79
2021/05/20 10:10:42;;;;;;;4.13;3.65;;;16.10;99.90;;;;;;5005279;28;20227;-81
2021/05/20 10:13:13;;;;;;;3.50;3.28;;;16.20;99.90;;;;;;5021139;28;20275;-79
2021/05/20 10:15:41;;;;;;;3.47;3.28;;;16.10;99.90;;;;;;5021447;28;20224;-79
2021/05/20 10:18:09;;;;;;;3.85;3.55;;;15.90;99.90;;;;;;5021488;28;20643;-79
2021/05/20 10:20:37;;;;;;;4.25;3.55;;;16.00;99.90;;;;;;5023139;28;20196;-80
2021/05/20 10:23:08;;;;;;;5.80;3.72;;;16.20;99.90;;;;;;5022745;28;20208;-75
2021/05/20 10:25:36;;;;;;;5.88;3.33;;;16.60;99.90;;;;;;5023448;28;20229;-79
2021/05/20 10:28:04;;;;;;;3.80;3.03;;;17.00;99.90;;;;;;5009081;28;20211;-79
2021/05/20 10:30:32;;;;;;;4.15;3.53;;;17.30;99.90;;;;;;5025271;28;20408;-79
2021/05/20 10:32:59;;;;;;;5.53;3.42;;;17.60;99.90;;;;;;5023276;28;20200;-78
2021/05/20 10:35:44;;;;;;;5.65;4.22;;;17.10;99.90;;;;;;5006252;28;20660;-80
2021/05/20 10:38:13;;;;;;;5.70;4.90;;;16.60;99.90;;;;;;5022662;28;20212;-79
2021/05/20 10:40:39;;;;;;;4.95;4.38;;;16.20;99.90;;;;;;5022464;28;20197;-80
2021/05/20 10:43:13;;;;;;;5.38;4.53;;;15.40;99.90;;;;;;5003383;28;20671;-81
2021/05/20 10:45:42;;;;;;;8.00;4.90;;;14.90;99.90;;;;;;5022911;28;20267;-80
2021/05/20 10:48:25;;;;;;;6.70;4.53;;;14.20;99.90;;;;;;5022303;28;20219;-80
2021/05/20 10:51:17;;;;;;;4.32;3.28;;;14.00;99.90;;;;;;5019938;28;20209;-80
2021/05/20 10:53:49;;;;;;;2.40;2.30;;;13.80;99.90;;;;;;5002137;28;20211;-78
2021/05/20 10:56:57;;;;;;;2.55;1.90;;;13.80;99.90;;;;;;5019231;28;20307;-78
2021/05/20 10:59:40;;;;;;;3.85;2.00;;;13.50;99.90;;;;;;5025204;28;20204;-80
2021/05/20 11:02:31;;;;;;;2.65;1.73;;;13.30;99.90;;;;;;5023282;28;20209;-80
2021/05/20 11:04:58;;;;;;;2.83;2.42;;;13.00;99.90;;;;;;5008543;28;20223;-80
2021/05/20 11:07:32;;;;;;;2.97;2.72;;;13.20;99.90;;;;;;5020690;28;20200;-78
2021/05/20 11:10:13;;;;;;;2.25;2.13;;;13.00;99.90;;;;;;5030828;28;20291;-78
2021/05/20 11:12:58;;;;;;;4.00;2.00;;;13.20;99.90;;;;;;5019305;28;20204;-80
2021/05/20 11:15:25;;;;;;;4.72;2.60;;;13.20;99.90;;;;;;5022182;28;20219;-80
2021/05/20 11:17:52;;;;;;;4.32;2.58;;;13.30;99.90;;;;;;5021796;28;20217;-79
2021/05/20 11:20:32;;;;;;;6.00;2.40;;;13.70;99.90;;;;;;5003175;28;20592;-79
2021/05/20 11:23:36;;;;;;;3.28;2.97;;;13.90;99.90;;;;;;5019278;28;20196;-78
2021/05/20 11:26:33;;;;;;;3.72;2.55;;;13.80;99.90;;;;;;5020752;28;20251;-79
2021/05/20 11:29:10;;;;;;;4.95;3.83;;;13.90;99.90;;;;;;5023370;28;20231;-79
2021/05/20 11:31:38;;;;;;;6.53;3.40;;;13.90;99.90;;;;;;5021704;28;20274;-79
2021/05/20 11:36:58;;;;;;;4.32;2.97;;;14.50;99.90;;;;;;5004693;28;20197;-78
2021/05/20 11:39:26;;;;;;;3.10;2.20;;;14.90;99.90;;;;;;5004536;28;20211;-79
2021/05/20 11:41:53;;;;;;;2.78;2.42;;;15.30;99.90;;;;;;5006734;28;20197;-78
2021/05/20 11:44:21;;;;;;;13.35;10.98;;;15.30;99.90;;;;;;4988597;28;20310;-79
2021/05/20 11:47:02;;;;;;;9.32;6.70;;;15.80;99.90;;;;;;4993591;28;20209;-79
2021/05/20 11:49:33;;;;;;;4.20;3.80;;;16.00;99.90;;;;;;5026793;28;20227;-79
2021/05/20 11:52:10;;;;;;;10.90;9.77;;;16.10;99.90;;;;;;5028951;28;20216;-80
2021/05/20 11:54:55;;;;;;;78.50;60.22;;;16.30;99.90;;;;;;5007966;28;20220;-80
2021/05/20 11:57:34;;;;;;;20.85;16.90;;;16.60;99.90;;;;;;5011060;28;20271;-78
2021/05/20 12:00:01;;;;;;;15.18;13.57;;;17.00;99.90;;;;;;5027177;28;20313;-80
2021/05/20 12:02:30;;;;;;;11.65;8.45;;;17.30;99.90;;;;;;5008977;28;20200;-80
2021/05/20 12:05:02;;;;;;;5.57;4.25;;;17.40;99.90;;;;;;5026087;28;20612;-78
2021/05/20 12:07:30;;;;;;;4.50;4.10;;;17.80;99.90;;;;;;5011548;28;20272;-79
2021/05/20 12:10:09;;;;;;;4.10;3.78;;;17.40;99.90;;;;;;5029488;28;20243;-79
2021/05/20 12:12:38;;;;;;;4.13;3.55;;;17.70;99.90;;;;;;4990196;28;20201;-79
2021/05/20 12:15:11;;;;;;;4.13;3.70;;;17.90;99.90;;;;;;5017996;28;20251;-79
2021/05/20 12:17:37;;;;;;;3.40;3.15;;;17.70;99.90;;;;;;4989075;28;20201;-80
2021/05/20 12:20:08;;;;;;;4.65;3.38;;;17.40;99.90;;;;;;4989583;28;20314;-79
2021/05/20 12:22:37;;;;;;;3.33;3.05;;;17.30;99.90;;;;;;5024934;28;20580;-78
2021/05/20 12:25:07;;;;;;;5.00;2.88;;;17.70;99.90;;;;;;5026327;28;20205;-79
2021/05/20 12:27:44;;;;;;;2.65;1.90;;;18.00;99.90;;;;;;4985695;28;20209;-78
2021/05/20 12:30:17;;;;;;;3.55;2.50;;;18.50;99.90;;;;;;4990701;28;20220;-79
2021/05/20 12:32:44;;;;;;;3.17;2.22;;;18.00;99.90;;;;;;5017814;28;20196;-79
2021/05/20 12:35:19;;;;;;;2.25;1.85;;;17.40;99.90;;;;;;5017990;28;20220;-79
2021/05/20 12:37:59;;;;;;;2.50;2.30;;;17.20;99.90;;;;;;5001629;28;20214;-79
2021/05/20 12:40:29;;;;;;;2.60;2.40;;;17.70;99.90;;;;;;5011832;28;20197;-80
2021/05/20 12:43:17;;;;;;;4.65;3.45;;;18.40;99.90;;;;;;5001486;28;20262;-79
2021/05/20 12:45:50;;;;;;;3.05;2.55;;;19.20;99.90;;;;;;5015991;28;20227;-78
2021/05/20 12:48:27;;;;;;;3.22;2.92;;;19.20;99.90;;;;;;5000370;28;20204;-80
2021/05/20 12:50:55;;;;;;;3.22;2.92;;;18.40;99.90;;;;;;5017556;28;20215;-79
2021/05/20 12:53:26;;;;;;;5.95;5.45;;;18.80;99.90;;;;;;5017885;28;20566;-79